sensor_id;sensor_type;location;lat;lon;timestamp;temperature;humidity
7814;DHT22;3952;48.364;16.022;2022-12-18T00:02:14;-1.00;99.90
7814;DHT22;3952;48.364;16.022;2022-12-18T00:04:41;-1.00;99.90
7814;DHT22;3952;48.364;16.022;2022-12-18T00:07:10;-0.90;99.90
7814;DHT22;3952;48.364;16.022;2022-12-18T00:09:37;-0.90;99.90
7814;DHT22;3952;48.364;16.022;2022-12-18T00:12:04;-1.00;99.90
7814;DHT22;3952;48.364;16.022;2022-12-18T00:14:32;-1.00;99.90
7814;DHT22;3952;48.364;16.022;2022-12-18T00:16:59;-0.90;99.90
7814;DHT22;3952;48.364;16.022;2022-12-18T00:19:27;-0.90;99.90
7814;DHT22;3952;48.364;16.022;2022-12-18T00:21:54;-0.90;99.90
7814;DHT22;3952;48.364;16.022;2022-12-18T00:24:23;-0.90;99.90
7814;DHT22;3952;48.364;16.022;2022-12-18T00:26:50;-0.90;99.90
7814;DHT22;3952;48.364;16.022;2022-12-18T00:29:17;-0.80;99.90
7814;DHT22;3952;48.364;16.022;2022-12-18T00:31:44;-0.80;99.90
7814;DHT22;3952;48.364;16.022;2022-12-18T00:34:12;-0.80;99.90
7814;DHT22;3952;48.364;16.022;2022-12-18T00:36:40;-0.90;99.90
7814;DHT22;3952;48.364;16.022;2022-12-18T00:39:08;-0.90;99.90
7814;DHT22;3952;48.364;16.022;2022-12-18T00:41:38;-0.90;99.90
7814;DHT22;3952;48.364;16.022;2022-12-18T00:44:27;-0.90;99.90
7814;DHT22;3952;48.364;16.022;2022-12-18T00:46:55;-0.90;99.90
7814;DHT22;3952;48.364;16.022;2022-12-18T00:49:22;-1.00;99.90
7814;DHT22;3952;48.364;16.022;2022-12-18T00:51:50;-1.00;99.90
7814;DHT22;3952;48.364;16.022;2022-12-18T00:54:17;-1.00;99.90
7814;DHT22;3952;48.364;16.022;2022-12-18T00:56:46;-1.00;99.90
7814;DHT22;3952;48.364;16.022;2022-12-18T00:59:13;-1.00;99.90
7814;DHT22;3952;48.364;16.022;2022-12-18T01:01:40;-1.00;99.90
7814;DHT22;3952;48.364;16.022;2022-12-18T01:04:08;-1.00;99.90
7814;DHT22;3952;48.364;16.022;2022-12-18T01:06:35;-1.10;99.90
7814;DHT22;3952;48.364;16.022;2022-12-18T01:09:02;-1.10;99.90
7814;DHT22;3952;48.364;16.022;2022-12-18T01:11:29;-1.10;99.90
7814;DHT22;3952;48.364;16.022;2022-12-18T01:13:58;-1.10;99.90
7814;DHT22;3952;48.364;16.022;2022-12-18T01:16:25;-1.10;99.90
7814;DHT22;3952;48.364;16.022;2022-12-18T01:18:53;-1.20;99.90
7814;DHT22;3952;48.364;16.022;2022-12-18T01:21:21;-1.10;99.90
7814;DHT22;3952;48.364;16.022;2022-12-18T01:23:51;-1.20;99.90
7814;DHT22;3952;48.364;16.022;2022-12-18T01:26:19;-1.20;99.90
7814;DHT22;3952;48.364;16.022;2022-12-18T01:28:47;-1.20;99.90
7814;DHT22;3952;48.364;16.022;2022-12-18T01:31:17;-1.30;99.90
7814;DHT22;3952;48.364;16.022;2022-12-18T01:33:45;-1.40;99.90
7814;DHT22;3952;48.364;16.022;2022-12-18T01:36:17;-1.40;99.90
7814;DHT22;3952;48.364;16.022;2022-12-18T01:38:45;-1.40;99.90
7814;DHT22;3952;48.364;16.022;2022-12-18T01:41:14;-1.40;99.90
7814;DHT22;3952;48.364;16.022;2022-12-18T01:43:49;-1.40;99.90
7814;DHT22;3952;48.364;16.022;2022-12-18T01:46:20;-1.40;99.90
7814;DHT22;3952;48.364;16.022;2022-12-18T01:48:49;-1.40;99.90
7814;DHT22;3952;48.364;16.022;2022-12-18T01:51:17;-1.40;99.90
7814;DHT22;3952;48.364;16.022;2022-12-18T01:53:45;-1.40;99.90
7814;DHT22;3952;48.364;16.022;2022-12-18T01:56:15;-1.40;99.90
7814;DHT22;3952;48.364;16.022;2022-12-18T01:58:50;-1.30;99.90
7814;DHT22;3952;48.364;16.022;2022-12-18T02:01:20;-1.40;99.90
7814;DHT22;3952;48.364;16.022;2022-12-18T02:03:48;-1.40;99.90
7814;DHT22;3952;48.364;16.022;2022-12-18T02:06:19;-1.90;99.90
7814;DHT22;3952;48.364;16.022;2022-12-18T02:08:59;-1.50;99.90
7814;DHT22;3952;48.364;16.022;2022-12-18T02:11:39;-1.60;99.90
7814;DHT22;3952;48.364;16.022;2022-12-18T02:14:17;-1.60;99.90
7814;DHT22;3952;48.364;16.022;2022-12-18T02:16:52;-1.60;99.90
7814;DHT22;3952;48.364;16.022;2022-12-18T02:19:36;-1.60;99.90
7814;DHT22;3952;48.364;16.022;2022-12-18T02:22:17;-1.60;99.90
7814;DHT22;3952;48.364;16.022;2022-12-18T02:24:58;-1.70;99.90
7814;DHT22;3952;48.364;16.022;2022-12-18T02:27:30;-1.80;99.90
7814;DHT22;3952;48.364;16.022;2022-12-18T02:29:59;-1.80;99.90
7814;DHT22;3952;48.364;16.022;2022-12-18T02:32:33;-1.80;99.90
7814;DHT22;3952;48.364;16.022;2022-12-18T02:35:03;-1.80;99.90
7814;DHT22;3952;48.364;16.022;2022-12-18T02:37:32;-1.80;99.90
7814;DHT22;3952;48.364;16.022;2022-12-18T02:40:02;-1.90;99.90
7814;DHT22;3952;48.364;16.022;2022-12-18T02:42:32;-2.00;99.90
7814;DHT22;3952;48.364;16.022;2022-12-18T02:44:59;-2.10;99.90
7814;DHT22;3952;48.364;16.022;2022-12-18T02:47:30;-2.10;99.90
7814;DHT22;3952;48.364;16.022;2022-12-18T02:50:03;-2.10;99.90
7814;DHT22;3952;48.364;16.022;2022-12-18T02:52:41;-2.10;99.90
7814;DHT22;3952;48.364;16.022;2022-12-18T02:55:19;-2.20;99.90
7814;DHT22;3952;48.364;16.022;2022-12-18T02:57:52;-2.30;99.90
7814;DHT22;3952;48.364;16.022;2022-12-18T03:00:23;-2.30;99.90
7814;DHT22;3952;48.364;16.022;2022-12-18T03:02:56;-2.40;99.90
7814;DHT22;3952;48.364;16.022;2022-12-18T03:05:31;-2.50;99.90
7814;DHT22;3952;48.364;16.022;2022-12-18T03:08:05;-2.50;99.90
7814;DHT22;3952;48.364;16.022;2022-12-18T03:10:37;-2.60;99.90
7814;DHT22;3952;48.364;16.022;2022-12-18T03:13:10;-2.60;99.90
7814;DHT22;3952;48.364;16.022;2022-12-18T03:15:42;-2.60;99.90
7814;DHT22;3952;48.364;16.022;2022-12-18T03:18:15;-2.70;99.90
7814;DHT22;3952;48.364;16.022;2022-12-18T03:20:44;-2.70;99.90
7814;DHT22;3952;48.364;16.022;2022-12-18T03:23:15;-2.70;99.90
7814;DHT22;3952;48.364;16.022;2022-12-18T03:25:47;-2.70;99.90
7814;DHT22;3952;48.364;16.022;2022-12-18T03:28:20;-2.80;99.90
7814;DHT22;3952;48.364;16.022;2022-12-18T03:30:52;-2.90;99.90
7814;DHT22;3952;48.364;16.022;2022-12-18T03:33:26;-2.90;99.90
7814;DHT22;3952;48.364;16.022;2022-12-18T03:35:55;-3.00;99.90
7814;DHT22;3952;48.364;16.022;2022-12-18T03:38:22;-3.20;99.90
7814;DHT22;3952;48.364;16.022;2022-12-18T03:40:56;-3.20;99.90
7814;DHT22;3952;48.364;16.022;2022-12-18T03:43:37;-3.30;99.90
7814;DHT22;3952;48.364;16.022;2022-12-18T03:46:10;-3.30;99.90
7814;DHT22;3952;48.364;16.022;2022-12-18T03:48:43;-3.30;99.90
7814;DHT22;3952;48.364;16.022;2022-12-18T03:51:16;-3.30;99.90
7814;DHT22;3952;48.364;16.022;2022-12-18T03:53:50;-3.30;99.90
7814;DHT22;3952;48.364;16.022;2022-12-18T03:56:21;-3.40;99.90
7814;DHT22;3952;48.364;16.022;2022-12-18T03:58:52;-3.40;99.90
7814;DHT22;3952;48.364;16.022;2022-12-18T04:01:23;-3.40;99.90
7814;DHT22;3952;48.364;16.022;2022-12-18T04:03:53;-3.40;99.90
7814;DHT22;3952;48.364;16.022;2022-12-18T04:06:21;-3.50;99.90
7814;DHT22;3952;48.364;16.022;2022-12-18T04:08:48;-3.50;99.90
7814;DHT22;3952;48.364;16.022;2022-12-18T04:11:16;-3.50;99.90
7814;DHT22;3952;48.364;16.022;2022-12-18T04:13:43;-3.60;99.90
7814;DHT22;3952;48.364;16.022;2022-12-18T04:16:12;-3.60;99.90
7814;DHT22;3952;48.364;16.022;2022-12-18T04:18:39;-3.70;99.90
7814;DHT22;3952;48.364;16.022;2022-12-18T04:21:06;-3.70;99.90
7814;DHT22;3952;48.364;16.022;2022-12-18T04:23:33;-3.70;99.90
7814;DHT22;3952;48.364;16.022;2022-12-18T04:26:01;-3.70;99.90
7814;DHT22;3952;48.364;16.022;2022-12-18T04:28:28;-3.70;99.90
7814;DHT22;3952;48.364;16.022;2022-12-18T04:30:55;-3.80;99.90
7814;DHT22;3952;48.364;16.022;2022-12-18T04:33:24;-3.80;99.90
7814;DHT22;3952;48.364;16.022;2022-12-18T04:35:51;-3.80;99.90
7814;DHT22;3952;48.364;16.022;2022-12-18T04:38:19;-3.90;99.90
7814;DHT22;3952;48.364;16.022;2022-12-18T04:40:46;-3.90;99.90
7814;DHT22;3952;48.364;16.022;2022-12-18T04:43:13;-3.90;99.90
7814;DHT22;3952;48.364;16.022;2022-12-18T04:45:41;-4.00;99.90
7814;DHT22;3952;48.364;16.022;2022-12-18T04:48:08;-4.00;99.90
7814;DHT22;3952;48.364;16.022;2022-12-18T04:50:37;-4.00;99.90
7814;DHT22;3952;48.364;16.022;2022-12-18T04:53:04;-4.00;99.90
7814;DHT22;3952;48.364;16.022;2022-12-18T04:55:31;-4.00;99.90
7814;DHT22;3952;48.364;16.022;2022-12-18T04:57:59;-4.10;99.90
7814;DHT22;3952;48.364;16.022;2022-12-18T05:00:26;-4.10;99.90
7814;DHT22;3952;48.364;16.022;2022-12-18T05:02:53;-4.10;99.90
7814;DHT22;3952;48.364;16.022;2022-12-18T05:05:20;-4.20;99.90
7814;DHT22;3952;48.364;16.022;2022-12-18T05:07:49;-4.30;99.90
7814;DHT22;3952;48.364;16.022;2022-12-18T05:10:17;-4.30;99.90
7814;DHT22;3952;48.364;16.022;2022-12-18T05:12:44;-4.30;99.90
7814;DHT22;3952;48.364;16.022;2022-12-18T05:15:29;-4.40;99.90
7814;DHT22;3952;48.364;16.022;2022-12-18T05:17:56;-4.40;99.90
7814;DHT22;3952;48.364;16.022;2022-12-18T05:20:24;-4.40;99.90
7814;DHT22;3952;48.364;16.022;2022-12-18T05:22:53;-4.30;99.90
7814;DHT22;3952;48.364;16.022;2022-12-18T05:25:22;-4.40;99.90
7814;DHT22;3952;48.364;16.022;2022-12-18T05:27:49;-4.60;99.90
7814;DHT22;3952;48.364;16.022;2022-12-18T05:30:17;-4.80;99.90
7814;DHT22;3952;48.364;16.022;2022-12-18T05:32:44;-4.70;99.90
7814;DHT22;3952;48.364;16.022;2022-12-18T05:35:11;-4.80;99.90
7814;DHT22;3952;48.364;16.022;2022-12-18T05:37:39;-4.80;99.90
7814;DHT22;3952;48.364;16.022;2022-12-18T05:40:09;-4.80;99.90
7814;DHT22;3952;48.364;16.022;2022-12-18T05:42:37;-4.80;99.90
7814;DHT22;3952;48.364;16.022;2022-12-18T05:45:06;-4.80;99.90
7814;DHT22;3952;48.364;16.022;2022-12-18T05:47:33;-4.80;99.90
7814;DHT22;3952;48.364;16.022;2022-12-18T05:50:00;-4.80;99.90
7814;DHT22;3952;48.364;16.022;2022-12-18T05:52:27;-4.70;99.90
7814;DHT22;3952;48.364;16.022;2022-12-18T05:54:55;-4.70;99.90
7814;DHT22;3952;48.364;16.022;2022-12-18T05:57:23;-4.80;99.90
7814;DHT22;3952;48.364;16.022;2022-12-18T05:59:51;-4.80;99.90
7814;DHT22;3952;48.364;16.022;2022-12-18T06:02:18;-4.80;99.90
7814;DHT22;3952;48.364;16.022;2022-12-18T06:04:46;-4.80;99.90
7814;DHT22;3952;48.364;16.022;2022-12-18T06:07:14;-4.90;99.90
7814;DHT22;3952;48.364;16.022;2022-12-18T06:09:41;-4.90;99.90
7814;DHT22;3952;48.364;16.022;2022-12-18T06:12:08;-4.90;99.90
7814;DHT22;3952;48.364;16.022;2022-12-18T06:14:37;-4.90;99.90
7814;DHT22;3952;48.364;16.022;2022-12-18T06:17:05;-4.80;99.90
7814;DHT22;3952;48.364;16.022;2022-12-18T06:19:32;-4.80;99.90
7814;DHT22;3952;48.364;16.022;2022-12-18T06:21:59;-4.80;99.90
7814;DHT22;3952;48.364;16.022;2022-12-18T06:24:27;-4.90;99.90
7814;DHT22;3952;48.364;16.022;2022-12-18T06:26:54;-5.00;99.90
7814;DHT22;3952;48.364;16.022;2022-12-18T06:29:22;-5.10;99.90
7814;DHT22;3952;48.364;16.022;2022-12-18T06:32:00;-5.10;99.90
7814;DHT22;3952;48.364;16.022;2022-12-18T06:34:27;-5.20;99.90
7814;DHT22;3952;48.364;16.022;2022-12-18T06:36:54;-5.30;99.90
7814;DHT22;3952;48.364;16.022;2022-12-18T06:39:22;-5.40;99.90
7814;DHT22;3952;48.364;16.022;2022-12-18T06:41:49;-5.40;99.90
7814;DHT22;3952;48.364;16.022;2022-12-18T06:44:16;-5.50;99.90
7814;DHT22;3952;48.364;16.022;2022-12-18T06:46:44;-5.50;99.90
7814;DHT22;3952;48.364;16.022;2022-12-18T06:49:15;-5.50;99.90
7814;DHT22;3952;48.364;16.022;2022-12-18T06:51:42;-5.50;99.90
7814;DHT22;3952;48.364;16.022;2022-12-18T06:54:10;-5.40;99.90
7814;DHT22;3952;48.364;16.022;2022-12-18T06:56:37;-5.40;99.90
7814;DHT22;3952;48.364;16.022;2022-12-18T06:59:04;-5.40;99.90
7814;DHT22;3952;48.364;16.022;2022-12-18T07:01:31;-5.40;99.90
7814;DHT22;3952;48.364;16.022;2022-12-18T07:03:59;-5.40;99.90
7814;DHT22;3952;48.364;16.022;2022-12-18T07:06:29;-5.40;99.90
7814;DHT22;3952;48.364;16.022;2022-12-18T07:08:58;-5.30;99.90
7814;DHT22;3952;48.364;16.022;2022-12-18T07:11:25;-5.30;99.90
7814;DHT22;3952;48.364;16.022;2022-12-18T07:13:53;-5.30;99.90
7814;DHT22;3952;48.364;16.022;2022-12-18T07:16:21;-5.20;99.90
7814;DHT22;3952;48.364;16.022;2022-12-18T07:18:48;-5.20;99.90
7814;DHT22;3952;48.364;16.022;2022-12-18T07:21:17;-5.20;99.90
7814;DHT22;3952;48.364;16.022;2022-12-18T07:23:46;-5.10;99.90
7814;DHT22;3952;48.364;16.022;2022-12-18T07:26:15;-5.10;99.90
7814;DHT22;3952;48.364;16.022;2022-12-18T07:28:43;-5.00;99.90
7814;DHT22;3952;48.364;16.022;2022-12-18T07:31:13;-5.00;99.90
7814;DHT22;3952;48.364;16.022;2022-12-18T07:33:41;-5.00;99.90
7814;DHT22;3952;48.364;16.022;2022-12-18T07:36:10;-4.90;99.90
7814;DHT22;3952;48.364;16.022;2022-12-18T07:38:37;-4.80;99.90
7814;DHT22;3952;48.364;16.022;2022-12-18T07:41:08;-4.60;99.90
7814;DHT22;3952;48.364;16.022;2022-12-18T07:43:37;-4.60;99.90
7814;DHT22;3952;48.364;16.022;2022-12-18T07:46:05;-4.40;99.90
7814;DHT22;3952;48.364;16.022;2022-12-18T07:48:32;-4.30;99.90
7814;DHT22;3952;48.364;16.022;2022-12-18T07:51:00;-4.00;99.90
7814;DHT22;3952;48.364;16.022;2022-12-18T07:53:27;-3.80;99.90
7814;DHT22;3952;48.364;16.022;2022-12-18T07:55:56;-3.50;99.90
7814;DHT22;3952;48.364;16.022;2022-12-18T07:58:25;-3.20;99.90
7814;DHT22;3952;48.364;16.022;2022-12-18T08:00:53;-2.90;99.90
7814;DHT22;3952;48.364;16.022;2022-12-18T08:03:20;-2.50;99.90
7814;DHT22;3952;48.364;16.022;2022-12-18T08:05:47;-2.10;99.90
7814;DHT22;3952;48.364;16.022;2022-12-18T08:08:14;-1.90;99.90
7814;DHT22;3952;48.364;16.022;2022-12-18T08:10:42;-1.60;99.90
7814;DHT22;3952;48.364;16.022;2022-12-18T08:13:09;-1.20;99.90
7814;DHT22;3952;48.364;16.022;2022-12-18T08:15:37;-1.40;99.90
7814;DHT22;3952;48.364;16.022;2022-12-18T08:18:04;-1.40;99.90
7814;DHT22;3952;48.364;16.022;2022-12-18T08:20:32;-1.30;99.90
7814;DHT22;3952;48.364;16.022;2022-12-18T08:22:59;-1.30;99.90
7814;DHT22;3952;48.364;16.022;2022-12-18T08:25:26;-1.30;99.90
7814;DHT22;3952;48.364;16.022;2022-12-18T08:27:54;-1.40;99.90
7814;DHT22;3952;48.364;16.022;2022-12-18T08:30:22;-1.20;99.90
7814;DHT22;3952;48.364;16.022;2022-12-18T08:32:52;-1.00;99.90
7814;DHT22;3952;48.364;16.022;2022-12-18T08:35:19;-0.90;99.90
7814;DHT22;3952;48.364;16.022;2022-12-18T08:37:47;-0.60;99.90
7814;DHT22;3952;48.364;16.022;2022-12-18T08:40:14;-0.30;99.90
7814;DHT22;3952;48.364;16.022;2022-12-18T08:42:41;-0.30;99.90
7814;DHT22;3952;48.364;16.022;2022-12-18T08:45:26;-0.20;99.90
7814;DHT22;3952;48.364;16.022;2022-12-18T08:47:55;-0.30;99.90
7814;DHT22;3952;48.364;16.022;2022-12-18T08:50:23;-0.20;99.90
7814;DHT22;3952;48.364;16.022;2022-12-18T08:52:50;-0.10;99.90
7814;DHT22;3952;48.364;16.022;2022-12-18T08:55:17;-0.10;99.90
7814;DHT22;3952;48.364;16.022;2022-12-18T08:57:48;0.00;99.90
7814;DHT22;3952;48.364;16.022;2022-12-18T09:00:16;0.30;99.90
7814;DHT22;3952;48.364;16.022;2022-12-18T09:02:43;0.40;99.90
7814;DHT22;3952;48.364;16.022;2022-12-18T09:05:12;0.60;99.90
7814;DHT22;3952;48.364;16.022;2022-12-18T09:07:39;0.60;99.90
7814;DHT22;3952;48.364;16.022;2022-12-18T09:10:07;0.70;99.90
7814;DHT22;3952;48.364;16.022;2022-12-18T09:12:34;0.60;99.90
7814;DHT22;3952;48.364;16.022;2022-12-18T09:15:02;0.20;99.90
7814;DHT22;3952;48.364;16.022;2022-12-18T09:17:29;-0.10;99.90
7814;DHT22;3952;48.364;16.022;2022-12-18T09:19:56;-0.30;99.90
7814;DHT22;3952;48.364;16.022;2022-12-18T09:22:25;-0.30;99.90
7814;DHT22;3952;48.364;16.022;2022-12-18T09:24:52;-0.40;99.90
7814;DHT22;3952;48.364;16.022;2022-12-18T09:27:19;-0.50;99.90
7814;DHT22;3952;48.364;16.022;2022-12-18T09:29:46;-0.50;99.90
7814;DHT22;3952;48.364;16.022;2022-12-18T09:32:14;-0.60;99.90
7814;DHT22;3952;48.364;16.022;2022-12-18T09:34:41;-0.30;99.90
7814;DHT22;3952;48.364;16.022;2022-12-18T09:37:08;-1.00;99.90
7814;DHT22;3952;48.364;16.022;2022-12-18T09:39:37;-1.10;99.90
7814;DHT22;3952;48.364;16.022;2022-12-18T09:42:05;-1.20;99.90
7814;DHT22;3952;48.364;16.022;2022-12-18T09:44:36;-1.20;99.90
7814;DHT22;3952;48.364;16.022;2022-12-18T09:47:09;-1.30;99.90
7814;DHT22;3952;48.364;16.022;2022-12-18T09:49:42;-1.40;99.90
7814;DHT22;3952;48.364;16.022;2022-12-18T09:52:14;-1.50;99.90
7814;DHT22;3952;48.364;16.022;2022-12-18T09:54:47;-1.60;99.90
7814;DHT22;3952;48.364;16.022;2022-12-18T09:57:18;-1.60;99.90
7814;DHT22;3952;48.364;16.022;2022-12-18T09:59:50;-1.70;99.90
7814;DHT22;3952;48.364;16.022;2022-12-18T10:02:20;-1.70;99.90
7814;DHT22;3952;48.364;16.022;2022-12-18T10:05:02;-1.80;99.90
7814;DHT22;3952;48.364;16.022;2022-12-18T10:07:38;-2.10;99.90
7814;DHT22;3952;48.364;16.022;2022-12-18T10:10:16;-1.90;99.90
7814;DHT22;3952;48.364;16.022;2022-12-18T10:12:55;-1.90;99.90
7814;DHT22;3952;48.364;16.022;2022-12-18T10:15:29;-1.90;99.90
7814;DHT22;3952;48.364;16.022;2022-12-18T10:18:06;-2.00;99.90
7814;DHT22;3952;48.364;16.022;2022-12-18T10:20:43;-1.90;99.90
7814;DHT22;3952;48.364;16.022;2022-12-18T10:23:17;-2.00;99.90
7814;DHT22;3952;48.364;16.022;2022-12-18T10:25:53;-2.00;99.90
7814;DHT22;3952;48.364;16.022;2022-12-18T10:28:23;-2.00;99.90
7814;DHT22;3952;48.364;16.022;2022-12-18T10:30:51;-2.00;99.90
7814;DHT22;3952;48.364;16.022;2022-12-18T10:33:20;-2.00;99.90
7814;DHT22;3952;48.364;16.022;2022-12-18T10:35:49;-1.90;99.90
7814;DHT22;3952;48.364;16.022;2022-12-18T10:38:23;-1.90;99.90
7814;DHT22;3952;48.364;16.022;2022-12-18T10:40:54;-1.90;99.90
7814;DHT22;3952;48.364;16.022;2022-12-18T10:43:24;-2.00;99.90
7814;DHT22;3952;48.364;16.022;2022-12-18T10:46:04;-1.90;99.90
7814;DHT22;3952;48.364;16.022;2022-12-18T10:48:39;-1.90;99.90
7814;DHT22;3952;48.364;16.022;2022-12-18T10:51:07;-1.90;99.90
7814;DHT22;3952;48.364;16.022;2022-12-18T10:53:37;-2.00;99.90
7814;DHT22;3952;48.364;16.022;2022-12-18T10:56:06;-2.00;99.90
7814;DHT22;3952;48.364;16.022;2022-12-18T10:58:35;-2.00;99.90
7814;DHT22;3952;48.364;16.022;2022-12-18T11:01:09;-2.00;99.90
7814;DHT22;3952;48.364;16.022;2022-12-18T11:03:38;-2.00;99.90
7814;DHT22;3952;48.364;16.022;2022-12-18T11:06:09;-1.90;99.90
7814;DHT22;3952;48.364;16.022;2022-12-18T11:08:37;-1.90;99.90
7814;DHT22;3952;48.364;16.022;2022-12-18T11:11:14;-1.90;99.90
7814;DHT22;3952;48.364;16.022;2022-12-18T11:14:01;-1.90;99.90
7814;DHT22;3952;48.364;16.022;2022-12-18T11:16:34;-1.90;99.90
7814;DHT22;3952;48.364;16.022;2022-12-18T11:19:19;-1.80;99.90
7814;DHT22;3952;48.364;16.022;2022-12-18T11:21:50;-1.90;99.90
7814;DHT22;3952;48.364;16.022;2022-12-18T11:24:26;-1.90;99.90
7814;DHT22;3952;48.364;16.022;2022-12-18T11:26:57;-2.00;99.90
7814;DHT22;3952;48.364;16.022;2022-12-18T11:29:30;-1.90;99.90
7814;DHT22;3952;48.364;16.022;2022-12-18T11:32:30;-1.90;99.90
7814;DHT22;3952;48.364;16.022;2022-12-18T11:35:10;-1.90;99.90
7814;DHT22;3952;48.364;16.022;2022-12-18T11:37:41;-1.80;99.90
7814;DHT22;3952;48.364;16.022;2022-12-18T11:40:14;-1.80;99.90
7814;DHT22;3952;48.364;16.022;2022-12-18T11:42:48;-1.80;99.90
7814;DHT22;3952;48.364;16.022;2022-12-18T11:45:25;-1.80;99.90
7814;DHT22;3952;48.364;16.022;2022-12-18T11:47:58;-1.80;99.90
7814;DHT22;3952;48.364;16.022;2022-12-18T11:50:30;-1.90;99.90
7814;DHT22;3952;48.364;16.022;2022-12-18T11:52:58;-1.80;99.90
7814;DHT22;3952;48.364;16.022;2022-12-18T11:55:35;-1.80;99.90
7814;DHT22;3952;48.364;16.022;2022-12-18T11:58:12;-1.70;99.90
7814;DHT22;3952;48.364;16.022;2022-12-18T12:00:49;-1.70;99.90
7814;DHT22;3952;48.364;16.022;2022-12-18T12:03:44;-1.70;99.90
7814;DHT22;3952;48.364;16.022;2022-12-18T12:06:21;-1.80;99.90
7814;DHT22;3952;48.364;16.022;2022-12-18T12:09:01;-1.80;99.90
7814;DHT22;3952;48.364;16.022;2022-12-18T12:11:38;-1.80;99.90
7814;DHT22;3952;48.364;16.022;2022-12-18T12:14:25;-1.80;99.90
7814;DHT22;3952;48.364;16.022;2022-12-18T12:16:58;-1.70;99.90
7814;DHT22;3952;48.364;16.022;2022-12-18T12:19:38;-1.80;99.90
7814;DHT22;3952;48.364;16.022;2022-12-18T12:22:16;-1.80;99.90
7814;DHT22;3952;48.364;16.022;2022-12-18T12:24:55;-1.80;99.90
7814;DHT22;3952;48.364;16.022;2022-12-18T12:27:33;-1.80;99.90
7814;DHT22;3952;48.364;16.022;2022-12-18T12:30:07;-1.80;99.90
7814;DHT22;3952;48.364;16.022;2022-12-18T12:32:49;-1.80;99.90
7814;DHT22;3952;48.364;16.022;2022-12-18T12:35:29;-1.80;99.90
7814;DHT22;3952;48.364;16.022;2022-12-18T12:38:06;-1.70;99.90
7814;DHT22;3952;48.364;16.022;2022-12-18T12:40:38;-1.70;99.90
7814;DHT22;3952;48.364;16.022;2022-12-18T12:43:19;-1.70;99.90
7814;DHT22;3952;48.364;16.022;2022-12-18T12:45:50;-1.70;99.90
7814;DHT22;3952;48.364;16.022;2022-12-18T12:48:27;-1.70;99.90
7814;DHT22;3952;48.364;16.022;2022-12-18T12:50:58;-1.80;99.90
7814;DHT22;3952;48.364;16.022;2022-12-18T12:53:30;-1.80;99.90
7814;DHT22;3952;48.364;16.022;2022-12-18T12:55:58;-1.80;99.90
7814;DHT22;3952;48.364;16.022;2022-12-18T12:58:31;-1.90;99.90
7814;DHT22;3952;48.364;16.022;2022-12-18T13:01:09;-1.90;99.90
7814;DHT22;3952;48.364;16.022;2022-12-18T13:03:49;-1.90;99.90
7814;DHT22;3952;48.364;16.022;2022-12-18T13:06:27;-2.00;99.90
7814;DHT22;3952;48.364;16.022;2022-12-18T13:08:58;-2.00;99.90
7814;DHT22;3952;48.364;16.022;2022-12-18T13:11:46;-2.00;99.90
7814;DHT22;3952;48.364;16.022;2022-12-18T13:14:33;-2.10;99.90
7814;DHT22;3952;48.364;16.022;2022-12-18T13:17:21;-2.00;99.90
7814;DHT22;3952;48.364;16.022;2022-12-18T13:20:07;-2.00;99.90
7814;DHT22;3952;48.364;16.022;2022-12-18T13:22:35;-2.10;99.90
7814;DHT22;3952;48.364;16.022;2022-12-18T13:25:31;-2.10;99.90
7814;DHT22;3952;48.364;16.022;2022-12-18T13:28:10;-2.10;99.90
7814;DHT22;3952;48.364;16.022;2022-12-18T13:30:44;-2.10;99.90
7814;DHT22;3952;48.364;16.022;2022-12-18T13:33:39;-2.10;99.90
7814;DHT22;3952;48.364;16.022;2022-12-18T13:36:13;-2.20;99.90
7814;DHT22;3952;48.364;16.022;2022-12-18T13:38:42;-2.20;99.90
7814;DHT22;3952;48.364;16.022;2022-12-18T13:41:24;-2.20;99.90
7814;DHT22;3952;48.364;16.022;2022-12-18T13:43:54;-2.20;99.90
7814;DHT22;3952;48.364;16.022;2022-12-18T13:46:27;-2.20;99.90
7814;DHT22;3952;48.364;16.022;2022-12-18T13:48:59;-2.20;99.90
7814;DHT22;3952;48.364;16.022;2022-12-18T13:51:28;-2.20;99.90
7814;DHT22;3952;48.364;16.022;2022-12-18T13:53:59;-2.30;99.90
7814;DHT22;3952;48.364;16.022;2022-12-18T13:56:29;-2.20;99.90
7814;DHT22;3952;48.364;16.022;2022-12-18T13:59:09;-2.20;99.90
7814;DHT22;3952;48.364;16.022;2022-12-18T14:01:42;-2.30;99.90
7814;DHT22;3952;48.364;16.022;2022-12-18T14:04:17;-2.20;99.90
7814;DHT22;3952;48.364;16.022;2022-12-18T14:06:45;-2.20;99.90
7814;DHT22;3952;48.364;16.022;2022-12-18T14:09:14;-2.20;99.90
7814;DHT22;3952;48.364;16.022;2022-12-18T14:11:46;-2.20;99.90
7814;DHT22;3952;48.364;16.022;2022-12-18T14:14:15;-2.30;99.90
7814;DHT22;3952;48.364;16.022;2022-12-18T14:16:46;-2.30;99.90
7814;DHT22;3952;48.364;16.022;2022-12-18T14:19:17;-2.30;99.90
7814;DHT22;3952;48.364;16.022;2022-12-18T14:21:48;-2.30;99.90
7814;DHT22;3952;48.364;16.022;2022-12-18T14:24:18;-2.30;99.90
7814;DHT22;3952;48.364;16.022;2022-12-18T14:26:47;-2.30;99.90
7814;DHT22;3952;48.364;16.022;2022-12-18T14:29:24;-2.30;99.90
7814;DHT22;3952;48.364;16.022;2022-12-18T14:32:05;-2.30;99.90
7814;DHT22;3952;48.364;16.022;2022-12-18T14:34:34;-2.30;99.90
7814;DHT22;3952;48.364;16.022;2022-12-18T14:37:01;-2.30;99.90
7814;DHT22;3952;48.364;16.022;2022-12-18T14:39:28;-2.30;99.90
7814;DHT22;3952;48.364;16.022;2022-12-18T14:41:56;-2.30;99.90
7814;DHT22;3952;48.364;16.022;2022-12-18T14:44:23;-2.30;99.90
7814;DHT22;3952;48.364;16.022;2022-12-18T14:46:50;-1.70;99.90
7814;DHT22;3952;48.364;16.022;2022-12-18T14:49:23;-2.30;99.90
7814;DHT22;3952;48.364;16.022;2022-12-18T14:51:54;-2.30;99.90
7814;DHT22;3952;48.364;16.022;2022-12-18T14:54:22;-2.30;99.90
7814;DHT22;3952;48.364;16.022;2022-12-18T14:56:57;-2.30;99.90
7814;DHT22;3952;48.364;16.022;2022-12-18T14:59:26;-2.30;99.90
7814;DHT22;3952;48.364;16.022;2022-12-18T15:01:59;-2.30;99.90
7814;DHT22;3952;48.364;16.022;2022-12-18T15:04:28;-2.30;99.90
7814;DHT22;3952;48.364;16.022;2022-12-18T15:07:09;-2.20;99.90
7814;DHT22;3952;48.364;16.022;2022-12-18T15:09:43;-2.20;99.90
7814;DHT22;3952;48.364;16.022;2022-12-18T15:12:23;-2.20;99.90
7814;DHT22;3952;48.364;16.022;2022-12-18T15:14:52;-2.10;99.90
7814;DHT22;3952;48.364;16.022;2022-12-18T15:17:21;-2.20;99.90
7814;DHT22;3952;48.364;16.022;2022-12-18T15:19:50;-2.20;99.90
7814;DHT22;3952;48.364;16.022;2022-12-18T15:22:22;-2.10;99.90
7814;DHT22;3952;48.364;16.022;2022-12-18T15:24:52;-2.20;99.90
7814;DHT22;3952;48.364;16.022;2022-12-18T15:27:26;-2.10;99.90
7814;DHT22;3952;48.364;16.022;2022-12-18T15:32:47;-2.10;99.90
7814;DHT22;3952;48.364;16.022;2022-12-18T15:35:17;-2.10;99.90
7814;DHT22;3952;48.364;16.022;2022-12-18T15:37:46;-2.10;99.90
7814;DHT22;3952;48.364;16.022;2022-12-18T15:40:14;-2.10;99.90
7814;DHT22;3952;48.364;16.022;2022-12-18T15:42:52;-2.10;99.90
7814;DHT22;3952;48.364;16.022;2022-12-18T15:45:38;-2.20;99.90
7814;DHT22;3952;48.364;16.022;2022-12-18T15:48:16;-2.10;99.90
7814;DHT22;3952;48.364;16.022;2022-12-18T15:50:45;-2.10;99.90
7814;DHT22;3952;48.364;16.022;2022-12-18T15:53:14;-2.10;99.90
7814;DHT22;3952;48.364;16.022;2022-12-18T15:55:41;-2.20;99.90
7814;DHT22;3952;48.364;16.022;2022-12-18T15:58:26;-2.10;99.90
7814;DHT22;3952;48.364;16.022;2022-12-18T16:00:55;-2.10;99.90
7814;DHT22;3952;48.364;16.022;2022-12-18T16:03:23;-2.10;99.90
7814;DHT22;3952;48.364;16.022;2022-12-18T16:05:50;-2.10;99.90
7814;DHT22;3952;48.364;16.022;2022-12-18T16:08:18;-2.10;99.90
7814;DHT22;3952;48.364;16.022;2022-12-18T16:10:46;-2.10;99.90
7814;DHT22;3952;48.364;16.022;2022-12-18T16:13:16;-2.00;99.90
7814;DHT22;3952;48.364;16.022;2022-12-18T16:15:45;-2.00;99.90